createdAt,value
2023-02-19T00:03:41.122Z,1.13
2023-02-19T00:08:44.897Z,1.12
2023-02-19T00:13:50.363Z,1.11
2023-02-19T00:18:54.979Z,1.06
2023-02-19T00:24:01.384Z,1.01
2023-02-19T00:29:04.890Z,0.96
2023-02-19T00:34:08.215Z,0.89
2023-02-19T00:39:15.865Z,0.80
2023-02-19T00:44:19.641Z,0.67
2023-02-19T00:49:23.601Z,0.52
2023-02-19T00:54:26.770Z,0.35
2023-02-19T00:59:29.775Z,0.20
2023-02-19T01:04:32.911Z,0.06
2023-02-19T01:09:35.890Z,-0.06
2023-02-19T01:14:39.085Z,-0.13
2023-02-19T01:19:42.187Z,-0.14
2023-02-19T01:24:45.308Z,-0.10
2023-02-19T01:29:48.298Z,-0.10
2023-02-19T01:34:51.300Z,-0.06
2023-02-19T01:39:54.310Z,-0.00
2023-02-19T01:45:18.938Z,0.06
2023-02-19T01:50:23.454Z,0.14
2023-02-19T01:55:26.665Z,0.23
2023-02-19T02:00:30.964Z,0.31
2023-02-19T02:05:46.493Z,0.40
2023-02-19T02:10:51.375Z,0.53
2023-02-19T02:16:23.163Z,0.64
2023-02-19T02:21:46.092Z,0.79
2023-02-19T02:27:01.077Z,0.91
2023-02-19T02:32:10.958Z,1.03
2023-02-19T02:37:16.048Z,1.15
2023-02-19T02:42:28.218Z,1.27
2023-02-19T02:47:44.942Z,1.37
2023-02-19T02:53:11.490Z,1.47
2023-02-19T02:58:16.752Z,1.55
2023-02-19T03:03:24.473Z,1.62
2023-02-19T03:08:31.790Z,1.68
2023-02-19T03:13:57.394Z,1.73
2023-02-19T03:19:20.167Z,1.76
2023-02-19T03:24:47.480Z,1.79
2023-02-19T03:29:54.538Z,1.81
2023-02-19T03:35:04.196Z,1.82
2023-02-19T03:40:08.671Z,1.85
2023-02-19T03:45:19.007Z,1.87
2023-02-19T03:50:44.637Z,1.90
2023-02-19T03:56:06.789Z,1.93
2023-02-19T04:01:20.034Z,1.97
2023-02-19T04:06:29.488Z,1.99
2023-02-19T04:11:33.733Z,2.02
2023-02-19T04:16:42.890Z,2.06
2023-02-19T04:21:47.424Z,2.06
2023-02-19T04:26:50.924Z,2.04
2023-02-19T04:31:53.965Z,2.01
2023-02-19T04:36:57.233Z,1.97
2023-02-19T04:42:00.441Z,1.94
2023-02-19T04:47:03.543Z,1.90
2023-02-19T04:52:06.648Z,1.85
2023-02-19T04:57:09.856Z,1.80
2023-02-19T05:02:13.064Z,1.72
2023-02-19T05:07:16.580Z,1.65
2023-02-19T05:12:19.790Z,1.59
2023-02-19T05:17:23.096Z,1.54
2023-02-19T05:22:26.324Z,1.50
2023-02-19T05:27:31.972Z,1.47
2023-02-19T05:32:35.909Z,1.45
2023-02-19T05:37:39.035Z,1.45
2023-02-19T05:42:42.003Z,1.44
2023-02-19T05:47:45.005Z,1.44
2023-02-19T05:52:48.109Z,1.46
2023-02-19T05:57:51.222Z,1.49
2023-02-19T06:02:54.878Z,1.55
2023-02-19T06:07:58.861Z,1.61
2023-02-19T06:13:02.071Z,1.67
2023-02-19T06:18:05.379Z,1.73
2023-02-19T06:23:08.381Z,1.81
2023-02-19T06:28:11.536Z,1.88
2023-02-19T06:33:14.703Z,1.94
2023-02-19T06:38:17.701Z,2.00
2023-02-19T06:43:20.712Z,2.09
2023-02-19T06:48:23.953Z,2.21
2023-02-19T06:53:27.751Z,2.31
2023-02-19T06:58:32.580Z,2.45
2023-02-19T07:03:35.688Z,2.62
2023-02-19T07:08:38.897Z,2.75
2023-02-19T07:13:42.101Z,2.81
2023-02-19T07:18:46.214Z,2.88
2023-02-19T07:23:50.297Z,3.04
2023-02-19T07:28:54.204Z,3.25
2023-02-19T07:33:58.619Z,3.30
2023-02-19T07:39:02.236Z,3.32
2023-02-19T07:44:06.061Z,3.34
2023-02-19T07:49:09.376Z,3.37
2023-02-19T07:54:13.806Z,3.42
2023-02-19T07:59:19.895Z,3.56
2023-02-19T08:04:22.993Z,3.65
2023-02-19T08:09:26.403Z,3.66
2023-02-19T08:14:30.032Z,3.75
2023-02-19T08:19:33.333Z,4.02
2023-02-19T08:24:39.711Z,4.31
2023-02-19T08:29:42.918Z,4.40
2023-02-19T08:34:46.023Z,4.37
2023-02-19T08:39:49.129Z,4.36
2023-02-19T08:44:52.235Z,4.29
2023-02-19T08:49:55.361Z,4.19
2023-02-19T08:54:58.661Z,4.12
2023-02-19T09:00:01.953Z,4.07
2023-02-19T09:05:08.548Z,4.17
2023-02-19T09:10:14.367Z,4.47
2023-02-19T09:15:19.718Z,4.88
2023-02-19T09:20:23.219Z,5.27
2023-02-19T09:25:27.727Z,6.21
2023-02-19T09:30:30.872Z,7.44
2023-02-19T09:35:34.040Z,7.85
2023-02-19T09:40:38.583Z,8.73
2023-02-19T09:45:42.098Z,9.53
2023-02-19T09:50:48.897Z,9.78
2023-02-19T09:55:53.527Z,9.78
2023-02-19T10:00:59.062Z,9.70
2023-02-19T10:06:11.147Z,9.98
2023-02-19T10:11:16.152Z,9.91
2023-02-19T10:16:25.196Z,10.28
2023-02-19T10:21:29.020Z,10.82
2023-02-19T10:26:35.599Z,10.64
2023-02-19T10:31:39.682Z,10.09
2023-02-19T10:36:45.530Z,9.65
2023-02-19T10:41:51.228Z,9.29
2023-02-19T10:46:57.727Z,9.07
2023-02-19T10:52:18.010Z,8.91
2023-02-19T10:57:30.694Z,8.94
2023-02-19T11:02:34.207Z,8.89
2023-02-19T11:07:39.162Z,8.89
2023-02-19T11:12:48.099Z,8.73
2023-02-19T11:18:08.508Z,8.44
2023-02-19T11:23:18.951Z,8.32
2023-02-19T11:28:32.852Z,8.34
2023-02-19T11:33:35.952Z,8.39
2023-02-19T11:38:39.167Z,8.28
2023-02-19T11:43:51.277Z,8.07
2023-02-19T11:49:30.540Z,7.76
2023-02-19T11:54:54.817Z,7.69
2023-02-19T12:00:30.637Z,7.46
2023-02-19T12:05:56.952Z,7.23
2023-02-19T12:11:05.186Z,6.94
2023-02-19T12:16:39.825Z,6.84
2023-02-19T12:22:12.633Z,6.99
2023-02-19T12:27:29.202Z,7.15
2023-02-19T12:32:50.069Z,7.25
2023-02-19T12:38:12.116Z,7.34
2023-02-19T12:43:24.863Z,7.11
2023-02-19T12:48:40.137Z,6.87
2023-02-19T12:53:53.183Z,6.72
2023-02-19T12:59:04.039Z,6.72
2023-02-19T13:04:37.468Z,6.80
2023-02-19T13:09:56.267Z,6.85
2023-02-19T13:15:05.409Z,6.73
2023-02-19T13:20:23.758Z,6.41
2023-02-19T13:25:50.323Z,6.09
2023-02-19T13:31:00.674Z,5.89
2023-02-19T13:36:16.910Z,5.79
2023-02-19T13:41:30.154Z,5.68
2023-02-19T13:46:38.322Z,5.47
2023-02-19T13:51:51.638Z,5.23
2023-02-19T13:57:26.130Z,5.05
2023-02-19T14:02:33.417Z,4.88
2023-02-19T14:07:49.601Z,4.77
2023-02-19T14:12:53.304Z,4.62
2023-02-19T14:17:57.442Z,4.46
2023-02-19T14:23:09.850Z,4.33
2023-02-19T14:28:18.910Z,4.23
2023-02-19T14:33:28.455Z,4.26
2023-02-19T14:39:01.151Z,4.36
2023-02-19T14:44:13.365Z,4.44
2023-02-19T14:49:26.407Z,4.52
2023-02-19T14:54:41.298Z,4.43
2023-02-19T15:00:00.620Z,4.22
2023-02-19T15:05:26.319Z,4.04
2023-02-19T15:10:32.658Z,3.90
2023-02-19T15:15:41.212Z,3.77
2023-02-19T15:20:45.057Z,3.67
2023-02-19T15:25:52.753Z,3.57
2023-02-19T15:30:59.517Z,3.45
2023-02-19T15:36:07.078Z,3.30
2023-02-19T15:41:22.099Z,3.15
2023-02-19T15:46:26.970Z,3.00
2023-02-19T15:51:43.531Z,2.85
2023-02-19T15:56:50.984Z,2.69
2023-02-19T16:01:54.859Z,2.54
2023-02-19T16:07:03.392Z,2.40
2023-02-19T16:12:24.381Z,2.25
2023-02-19T16:17:28.962Z,2.10
2023-02-19T16:22:41.088Z,1.98
2023-02-19T16:27:44.899Z,1.86
2023-02-19T16:32:48.103Z,1.72
2023-02-19T16:37:58.554Z,1.59
2023-02-19T16:43:04.558Z,1.46
2023-02-19T16:48:09.357Z,1.33
2023-02-19T16:53:20.505Z,1.22
2023-02-19T16:58:25.749Z,1.09
2023-02-19T17:03:29.159Z,0.95
2023-02-19T17:08:39.039Z,0.80
2023-02-19T17:13:43.638Z,0.66
2023-02-19T17:18:47.281Z,0.53
2023-02-19T17:23:50.696Z,0.41
2023-02-19T17:29:02.517Z,0.31
2023-02-19T17:34:06.025Z,0.23
2023-02-19T17:39:15.669Z,0.20
2023-02-19T17:44:18.915Z,0.20
2023-02-19T17:49:22.197Z,0.18
2023-02-19T17:54:27.663Z,0.21
2023-02-19T17:59:32.305Z,0.23
2023-02-19T18:04:37.020Z,0.25
2023-02-19T18:09:41.794Z,0.32
2023-02-19T18:14:48.380Z,0.35
2023-02-19T18:19:53.436Z,0.37
2023-02-19T18:24:56.852Z,0.36
2023-02-19T18:30:00.518Z,0.34
2023-02-19T18:35:06.089Z,0.36
2023-02-19T18:40:13.947Z,0.41
2023-02-19T18:45:23.200Z,0.42
2023-02-19T18:50:28.640Z,0.46
2023-02-19T18:55:35.960Z,0.47
2023-02-19T19:00:41.827Z,0.44
2023-02-19T19:05:46.392Z,0.37
2023-02-19T19:10:50.817Z,0.37
2023-02-19T19:15:54.405Z,0.44
2023-02-19T19:21:03.779Z,0.49
2023-02-19T19:26:07.607Z,0.49
2023-02-19T19:31:14.403Z,0.49
2023-02-19T19:36:23.317Z,0.55
2023-02-19T19:41:26.966Z,0.61
2023-02-19T19:46:31.787Z,0.70
2023-02-19T19:51:36.140Z,0.82
2023-02-19T19:56:45.053Z,0.87
2023-02-19T20:01:53.182Z,0.92
2023-02-19T20:06:59.747Z,0.95
2023-02-19T20:12:03.916Z,0.96
2023-02-19T20:17:09.786Z,0.96
2023-02-19T20:22:12.892Z,1.00
2023-02-19T20:27:16.120Z,1.07
2023-02-19T20:32:19.349Z,1.15
2023-02-19T20:37:24.357Z,1.21
2023-02-19T20:42:29.519Z,1.22
2023-02-19T20:47:34.667Z,1.24
2023-02-19T20:52:37.978Z,1.30
2023-02-19T20:57:41.494Z,1.36
2023-02-19T21:02:46.088Z,1.42
2023-02-19T21:07:49.861Z,1.46
2023-02-19T21:12:54.561Z,1.50
2023-02-19T21:17:57.908Z,1.53
2023-02-19T21:23:02.502Z,1.51
2023-02-19T21:28:09.445Z,1.43
2023-02-19T21:33:13.573Z,1.35
2023-02-19T21:38:16.989Z,1.28
2023-02-19T21:43:20.431Z,1.23
2023-02-19T21:48:24.331Z,1.21
2023-02-19T21:53:28.249Z,1.19
2023-02-19T21:58:31.456Z,1.18
2023-02-19T22:03:34.564Z,1.17
2023-02-19T22:08:37.667Z,1.18
2023-02-19T22:13:40.874Z,1.20
2023-02-19T22:18:51.883Z,1.22
2023-02-19T22:23:55.585Z,1.25
2023-02-19T22:28:59.865Z,1.28
2023-02-19T22:34:03.131Z,1.30
2023-02-19T22:39:08.990Z,1.32
2023-02-19T22:44:12.705Z,1.34
2023-02-19T22:49:16.233Z,1.36
2023-02-19T22:54:25.171Z,1.36
2023-02-19T22:59:28.176Z,1.34
2023-02-19T23:04:31.582Z,1.31
2023-02-19T23:09:34.698Z,1.28
2023-02-19T23:14:38.115Z,1.27
2023-02-19T23:19:41.222Z,1.27
2023-02-19T23:24:44.634Z,1.29
2023-02-19T23:29:47.842Z,1.32
2023-02-19T23:34:51.565Z,1.36
2023-02-19T23:39:54.616Z,1.41
2023-02-19T23:44:57.778Z,1.42
2023-02-19T23:50:01.286Z,1.41
2023-02-19T23:55:05.926Z,1.38
